createdAt,value
2019-03-08T00:00:59.217Z,94.40
2019-03-08T00:03:28.449Z,94.50
2019-03-08T00:05:57.769Z,95.20
2019-03-08T00:08:26.967Z,95.30
2019-03-08T00:10:56.465Z,95.70
2019-03-08T00:13:25.713Z,95.80
2019-03-08T00:15:54.943Z,96.70
2019-03-08T00:18:24.159Z,98.90
2019-03-08T00:20:53.481Z,99.30
2019-03-08T00:23:22.774Z,99.90
2019-03-08T00:25:52.498Z,99.90
2019-03-08T00:28:21.749Z,99.90
2019-03-08T00:30:50.956Z,99.90
2019-03-08T00:33:20.179Z,99.90
2019-03-08T00:35:49.447Z,99.90
2019-03-08T00:38:18.646Z,99.90
2019-03-08T00:40:48.149Z,99.90
2019-03-08T00:43:17.317Z,99.90
2019-03-08T00:45:46.731Z,99.90
2019-03-08T00:48:15.937Z,99.90
2019-03-08T00:50:45.227Z,99.90
2019-03-08T00:53:15.769Z,99.90
2019-03-08T00:55:45.069Z,99.90
2019-03-08T00:58:14.386Z,99.90
2019-03-08T01:00:43.675Z,99.90
2019-03-08T01:03:12.997Z,99.90
2019-03-08T01:05:42.231Z,99.90
2019-03-08T01:08:11.553Z,99.90
2019-03-08T01:10:40.842Z,99.90
2019-03-08T01:13:10.129Z,99.90
2019-03-08T01:15:39.398Z,99.90
2019-03-08T01:18:08.612Z,99.90
2019-03-08T01:20:37.931Z,99.90
2019-03-08T01:23:07.061Z,99.90
2019-03-08T01:25:36.361Z,99.90
2019-03-08T01:28:10.379Z,99.90
2019-03-08T01:30:40.349Z,99.90
2019-03-08T01:33:09.568Z,99.90
2019-03-08T01:35:39.109Z,99.90
2019-03-08T01:38:08.329Z,99.90
2019-03-08T01:40:37.566Z,99.90
2019-03-08T01:43:07.106Z,99.90
2019-03-08T01:45:36.376Z,99.90
2019-03-08T01:48:06.025Z,99.90
2019-03-08T01:50:35.267Z,99.90
2019-03-08T01:53:04.487Z,99.90
2019-03-08T01:55:33.689Z,99.90
2019-03-08T01:58:02.923Z,99.90
2019-03-08T02:00:32.255Z,99.90
2019-03-08T02:03:02.041Z,99.90
2019-03-08T02:05:31.260Z,99.90
2019-03-08T02:08:00.466Z,99.90
2019-03-08T02:10:30.237Z,99.90
2019-03-08T02:12:59.535Z,99.90
2019-03-08T02:15:28.757Z,99.90
2019-03-08T02:17:58.165Z,99.90
2019-03-08T02:20:27.403Z,99.90
2019-03-08T02:22:56.619Z,99.90
2019-03-08T02:25:25.826Z,99.90
2019-03-08T02:27:55.134Z,99.90
2019-03-08T02:30:24.658Z,99.90
2019-03-08T02:32:53.860Z,99.90
2019-03-08T02:35:23.511Z,99.90
2019-03-08T02:37:52.801Z,99.90
2019-03-08T02:40:28.345Z,99.90
2019-03-08T02:42:57.747Z,99.90
2019-03-08T02:45:27.013Z,99.90
2019-03-08T02:47:56.270Z,99.90
2019-03-08T02:50:25.485Z,99.90
2019-03-08T02:52:54.630Z,99.90
2019-03-08T02:55:23.993Z,99.90
2019-03-08T02:57:53.402Z,99.90
2019-03-08T03:00:22.908Z,99.90
2019-03-08T03:02:52.355Z,99.90
2019-03-08T03:05:21.642Z,99.90
2019-03-08T03:07:50.772Z,99.90
2019-03-08T03:10:20.319Z,99.90
2019-03-08T03:12:49.531Z,99.90
2019-03-08T03:15:18.745Z,99.90
2019-03-08T03:17:47.920Z,99.90
2019-03-08T03:20:17.549Z,99.90
2019-03-08T03:22:46.849Z,99.90
2019-03-08T03:25:16.816Z,99.90
2019-03-08T03:27:46.021Z,99.90
2019-03-08T03:30:15.987Z,99.90
2019-03-08T03:32:48.226Z,99.90
2019-03-08T03:35:17.449Z,99.90
2019-03-08T03:37:47.196Z,99.90
2019-03-08T03:40:16.695Z,99.90
2019-03-08T03:42:45.906Z,99.90
2019-03-08T03:45:16.150Z,99.90
2019-03-08T03:47:45.383Z,99.90
2019-03-08T03:50:14.706Z,99.90
2019-03-08T03:52:43.940Z,99.90
2019-03-08T03:55:13.925Z,99.90
2019-03-08T03:57:43.153Z,99.90
2019-03-08T04:00:13.966Z,99.90
2019-03-08T04:02:44.533Z,99.90
2019-03-08T04:05:14.147Z,99.90
2019-03-08T04:07:43.360Z,99.90
2019-03-08T04:10:13.198Z,99.90
2019-03-08T04:12:42.409Z,99.90
2019-03-08T04:15:13.667Z,99.90
2019-03-08T04:17:43.345Z,99.90
2019-03-08T04:20:13.799Z,99.90
2019-03-08T04:22:43.009Z,99.90
2019-03-08T04:25:12.459Z,99.90
2019-03-08T04:27:41.928Z,99.90
2019-03-08T04:30:13.593Z,99.90
2019-03-08T04:32:42.845Z,99.90
2019-03-08T04:35:12.138Z,99.90
2019-03-08T04:37:41.519Z,99.90
2019-03-08T04:40:11.604Z,99.90
2019-03-08T04:42:40.804Z,99.90
2019-03-08T04:45:10.657Z,99.90
2019-03-08T04:47:39.832Z,99.90
2019-03-08T04:50:10.282Z,99.90
2019-03-08T04:52:39.485Z,99.90
2019-03-08T04:55:11.075Z,99.90
2019-03-08T04:57:40.277Z,99.90
2019-03-08T05:00:10.853Z,99.90
2019-03-08T05:02:40.126Z,99.90
2019-03-08T05:05:09.335Z,99.90
2019-03-08T05:07:38.555Z,99.90
2019-03-08T05:10:09.942Z,99.90
2019-03-08T05:12:39.371Z,99.90
2019-03-08T05:15:08.873Z,99.90
2019-03-08T05:17:38.158Z,99.90
2019-03-08T05:20:08.257Z,99.90
2019-03-08T05:22:37.468Z,99.90
2019-03-08T05:25:06.907Z,99.90
2019-03-08T05:27:36.495Z,99.90
2019-03-08T05:30:06.565Z,99.90
2019-03-08T05:32:35.809Z,99.90
2019-03-08T05:35:05.806Z,99.90
2019-03-08T05:37:35.007Z,99.90
2019-03-08T05:40:04.546Z,99.90
2019-03-08T05:42:33.754Z,99.90
2019-03-08T05:45:03.073Z,99.90
2019-03-08T05:47:32.308Z,99.90
2019-03-08T05:50:01.507Z,99.90
2019-03-08T05:52:30.798Z,99.90
2019-03-08T05:55:00.350Z,99.90
2019-03-08T05:57:29.548Z,99.90
2019-03-08T05:59:58.768Z,99.90
2019-03-08T06:02:28.005Z,99.90
2019-03-08T06:04:57.214Z,99.90
2019-03-08T06:07:26.421Z,99.90
2019-03-08T06:09:56.070Z,99.90
2019-03-08T06:12:25.279Z,99.90
2019-03-08T06:14:54.496Z,99.90
2019-03-08T06:17:23.734Z,99.90
2019-03-08T06:19:53.025Z,99.90
2019-03-08T06:22:22.240Z,99.90
2019-03-08T06:24:51.599Z,99.90
2019-03-08T06:27:20.758Z,99.90
2019-03-08T06:29:49.973Z,99.90
2019-03-08T06:32:19.220Z,99.90
2019-03-08T06:34:48.439Z,99.90
2019-03-08T06:37:17.667Z,99.90
2019-03-08T06:39:47.101Z,99.90
2019-03-08T06:42:16.317Z,99.90
2019-03-08T06:44:45.609Z,99.90
2019-03-08T06:47:15.263Z,99.90
2019-03-08T06:49:44.553Z,99.90
2019-03-08T06:52:13.763Z,99.90
2019-03-08T06:54:43.086Z,99.90
2019-03-08T06:57:12.223Z,99.90
2019-03-08T06:59:48.851Z,99.90
2019-03-08T07:02:18.785Z,99.90
2019-03-08T07:04:48.009Z,99.90
2019-03-08T07:07:17.434Z,99.90
2019-03-08T07:09:46.724Z,99.90
2019-03-08T07:12:15.934Z,99.90
2019-03-08T07:14:46.949Z,99.90
2019-03-08T07:17:16.240Z,99.90
2019-03-08T07:20:08.792Z,99.90
2019-03-08T07:22:54.966Z,99.90
2019-03-08T07:25:50.937Z,99.90
2019-03-08T07:28:30.563Z,99.90
2019-03-08T07:31:20.195Z,99.90
2019-03-08T07:33:59.795Z,99.90
2019-03-08T07:36:51.102Z,99.90
2019-03-08T07:39:38.685Z,99.90
2019-03-08T07:42:36.024Z,99.90
2019-03-08T07:45:34.023Z,99.90
2019-03-08T07:48:10.379Z,99.90
2019-03-08T07:50:46.961Z,99.90
2019-03-08T07:53:27.498Z,99.90
2019-03-08T07:56:21.621Z,99.90
2019-03-08T07:59:15.697Z,99.90
2019-03-08T08:02:16.229Z,99.90
2019-03-08T08:05:10.350Z,99.90
2019-03-08T08:07:47.739Z,99.90
2019-03-08T08:10:51.063Z,99.90
2019-03-08T08:13:30.791Z,99.90
2019-03-08T08:16:12.006Z,99.90
2019-03-08T08:18:55.294Z,99.90
2019-03-08T08:21:42.442Z,99.90
2019-03-08T08:24:28.826Z,99.90
2019-03-08T08:27:15.979Z,99.90
2019-03-08T08:30:03.041Z,99.90
2019-03-08T08:32:51.645Z,99.90
2019-03-08T08:35:39.893Z,99.90
2019-03-08T08:38:25.203Z,99.90
2019-03-08T08:41:13.745Z,99.90
2019-03-08T08:44:08.019Z,99.90
2019-03-08T08:46:51.711Z,99.90
2019-03-08T08:49:30.165Z,99.90
2019-03-08T08:52:12.435Z,99.90
2019-03-08T08:55:04.156Z,99.90
2019-03-08T08:57:55.533Z,99.90
2019-03-08T09:00:50.133Z,99.90
2019-03-08T09:03:38.436Z,99.90
2019-03-08T09:06:27.019Z,99.90
2019-03-08T09:09:05.412Z,95.60
2019-03-08T09:11:52.500Z,93.30
2019-03-08T09:14:27.749Z,93.20
2019-03-08T09:17:28.334Z,90.40
2019-03-08T09:20:13.781Z,91.50
2019-03-08T09:23:05.107Z,90.90
2019-03-08T09:26:05.761Z,89.60
2019-03-08T09:28:54.042Z,91.50
2019-03-08T09:31:29.720Z,93.90
2019-03-08T09:34:33.086Z,93.70
2019-03-08T09:37:21.329Z,91.80
2019-03-08T09:40:18.441Z,90.80
2019-03-08T09:43:09.684Z,92.30
2019-03-08T09:46:06.917Z,88.30
2019-03-08T09:48:55.166Z,88.10
2019-03-08T09:51:41.528Z,88.00
2019-03-08T09:54:18.517Z,90.30
2019-03-08T09:57:00.456Z,92.90
2019-03-08T09:59:47.369Z,92.40
2019-03-08T10:02:45.949Z,91.10
2019-03-08T10:05:46.199Z,90.20
2019-03-08T10:08:27.967Z,88.30
2019-03-08T10:11:22.227Z,92.40
2019-03-08T10:14:02.044Z,92.40
2019-03-08T10:16:36.505Z,85.40
2019-03-08T10:19:21.919Z,78.70
2019-03-08T10:22:19.416Z,79.90
2019-03-08T10:25:16.860Z,78.10
2019-03-08T10:27:56.173Z,79.50
2019-03-08T10:30:52.507Z,80.90
2019-03-08T10:33:46.178Z,79.80
2019-03-08T10:36:24.491Z,79.90
2019-03-08T10:39:09.531Z,78.70
2019-03-08T10:41:56.673Z,80.50
2019-03-08T10:44:48.345Z,78.50
2019-03-08T10:47:37.788Z,77.60
2019-03-08T10:50:30.297Z,77.50
2019-03-08T10:53:18.574Z,76.10
2019-03-08T10:56:22.323Z,78.70
2019-03-08T10:59:08.095Z,78.70
2019-03-08T11:02:02.392Z,78.50
2019-03-08T11:04:56.496Z,78.50
2019-03-08T11:07:34.005Z,75.80
2019-03-08T11:10:28.290Z,71.90
2019-03-08T11:13:17.044Z,71.40
2019-03-08T11:16:08.095Z,70.50
2019-03-08T11:18:52.106Z,70.60
2019-03-08T11:21:40.387Z,68.10
2019-03-08T11:24:27.723Z,70.50
2019-03-08T11:27:14.906Z,70.50
2019-03-08T11:30:05.957Z,71.30
2019-03-08T11:32:40.162Z,68.70
2019-03-08T11:35:27.821Z,68.00
2019-03-08T11:38:08.781Z,68.50
2019-03-08T11:40:55.390Z,66.30
2019-03-08T11:43:49.729Z,66.50
2019-03-08T11:46:32.451Z,62.30
2019-03-08T11:49:27.385Z,61.10
2019-03-08T11:52:27.965Z,61.50
2019-03-08T11:55:28.079Z,62.30
2019-03-08T11:58:22.317Z,62.30
2019-03-08T12:00:59.110Z,63.70
2019-03-08T12:03:46.319Z,64.50
2019-03-08T12:06:34.935Z,61.70
2019-03-08T12:09:11.216Z,58.50
2019-03-08T12:11:58.444Z,60.50
2019-03-08T12:14:49.738Z,60.00
2019-03-08T12:17:50.017Z,59.80
2019-03-08T12:20:50.543Z,62.30
2019-03-08T12:23:37.438Z,62.30
2019-03-08T12:26:24.718Z,61.90
2019-03-08T12:29:22.362Z,61.30
2019-03-08T12:31:58.193Z,61.60
2019-03-08T12:34:38.561Z,61.40
2019-03-08T12:37:25.624Z,62.70
2019-03-08T12:40:00.354Z,62.90
2019-03-08T12:42:51.296Z,62.20
2019-03-08T12:45:38.117Z,62.40
2019-03-08T12:48:23.442Z,60.10
2019-03-08T12:50:56.690Z,60.00
2019-03-08T12:53:43.757Z,59.80
2019-03-08T12:56:18.858Z,58.90
2019-03-08T12:58:54.785Z,59.00
2019-03-08T13:01:42.269Z,61.20
2019-03-08T13:04:19.190Z,60.30
2019-03-08T13:07:19.586Z,61.40
2019-03-08T13:09:48.809Z,62.00
2019-03-08T13:12:18.464Z,62.90
2019-03-08T13:14:47.715Z,62.40
2019-03-08T13:17:17.278Z,61.60
2019-03-08T13:19:46.518Z,61.80
2019-03-08T13:22:16.106Z,60.70
2019-03-08T13:24:45.348Z,62.80
2019-03-08T13:27:14.516Z,62.70
2019-03-08T13:29:43.777Z,58.20
2019-03-08T13:32:13.478Z,56.60
2019-03-08T13:34:42.688Z,59.10
2019-03-08T13:37:11.929Z,57.60
2019-03-08T13:39:41.066Z,57.00
2019-03-08T13:42:10.365Z,58.20
2019-03-08T13:44:39.605Z,58.60
2019-03-08T13:47:08.909Z,58.80
2019-03-08T13:49:38.129Z,57.70
2019-03-08T13:52:07.379Z,57.20
2019-03-08T13:54:36.594Z,58.10
2019-03-08T13:57:05.858Z,56.60
2019-03-08T13:59:35.097Z,56.00
2019-03-08T14:02:04.428Z,55.50
2019-03-08T14:04:33.714Z,55.40
2019-03-08T14:07:02.966Z,56.20
2019-03-08T14:09:32.187Z,56.30
2019-03-08T14:12:01.426Z,55.10
2019-03-08T14:14:30.887Z,57.00
2019-03-08T14:17:00.146Z,54.90
2019-03-08T14:19:29.371Z,56.50
2019-03-08T14:21:58.615Z,56.30
2019-03-08T14:24:27.847Z,54.30
2019-03-08T14:26:57.085Z,54.20
2019-03-08T14:29:26.389Z,53.20
2019-03-08T14:31:59.042Z,51.80
2019-03-08T14:34:28.334Z,51.00
2019-03-08T14:36:57.598Z,51.50
2019-03-08T14:39:26.912Z,52.80
2019-03-08T14:42:05.215Z,50.50
2019-03-08T14:45:11.462Z,50.20
2019-03-08T14:47:43.336Z,51.50
2019-03-08T14:50:12.969Z,50.30
2019-03-08T14:52:42.189Z,50.70
2019-03-08T14:55:14.467Z,50.80
2019-03-08T14:57:43.682Z,51.10
2019-03-08T15:00:19.069Z,52.30
2019-03-08T15:02:48.674Z,53.60
2019-03-08T15:05:19.228Z,50.80
2019-03-08T15:07:49.047Z,50.40
2019-03-08T15:10:19.342Z,50.80
2019-03-08T15:12:49.560Z,52.20
2019-03-08T15:15:18.939Z,51.30
2019-03-08T15:17:49.738Z,52.30
2019-03-08T15:20:19.094Z,52.50
2019-03-08T15:22:48.643Z,53.60
2019-03-08T15:25:17.967Z,56.90
2019-03-08T15:27:47.124Z,56.90
2019-03-08T15:30:17.153Z,56.40
2019-03-08T15:32:46.962Z,57.20
2019-03-08T15:35:16.900Z,60.00
2019-03-08T15:37:46.150Z,60.00
2019-03-08T15:40:17.232Z,60.40
2019-03-08T15:42:46.452Z,60.90
2019-03-08T15:45:16.529Z,62.30
2019-03-08T15:47:46.066Z,63.20
2019-03-08T15:50:16.355Z,68.00
2019-03-08T15:52:46.396Z,71.00
2019-03-08T15:55:15.612Z,74.00
2019-03-08T15:57:44.771Z,75.80
2019-03-08T16:00:16.450Z,77.40
2019-03-08T16:02:46.910Z,77.60
2019-03-08T16:05:16.690Z,78.90
2019-03-08T16:07:45.865Z,78.00
2019-03-08T16:10:16.373Z,79.00
2019-03-08T16:12:45.799Z,79.60
2019-03-08T16:15:15.581Z,81.70
2019-03-08T16:17:44.821Z,83.10
2019-03-08T16:20:14.930Z,82.80
2019-03-08T16:22:44.206Z,83.70
2019-03-08T16:25:14.454Z,84.50
2019-03-08T16:27:43.676Z,84.40
2019-03-08T16:30:17.569Z,84.30
2019-03-08T16:33:03.749Z,84.80
2019-03-08T16:35:41.132Z,84.50
2019-03-08T16:38:29.454Z,85.20
2019-03-08T16:41:08.538Z,86.00
2019-03-08T16:43:52.552Z,85.20
2019-03-08T16:46:49.559Z,84.90
2019-03-08T16:49:36.063Z,85.70
2019-03-08T16:52:30.121Z,84.90
2019-03-08T16:55:10.442Z,84.30
2019-03-08T16:57:50.838Z,85.30
2019-03-08T17:00:45.606Z,85.10
2019-03-08T17:03:34.111Z,86.70
2019-03-08T17:06:14.821Z,85.10
2019-03-08T17:08:59.848Z,86.40
2019-03-08T17:11:48.051Z,85.50
2019-03-08T17:14:35.512Z,86.10
2019-03-08T17:17:29.787Z,85.60
2019-03-08T17:20:10.460Z,85.90
2019-03-08T17:22:45.359Z,85.40
2019-03-08T17:25:39.468Z,86.50
2019-03-08T17:28:34.107Z,85.60
2019-03-08T17:31:25.630Z,86.70
2019-03-08T17:34:14.709Z,87.30
2019-03-08T17:36:55.314Z,85.40
2019-03-08T17:39:49.449Z,86.50
2019-03-08T17:42:40.617Z,86.50
2019-03-08T17:45:32.210Z,85.40
2019-03-08T17:48:19.449Z,85.90
2019-03-08T17:51:12.594Z,86.20
2019-03-08T17:54:10.819Z,87.30
2019-03-08T17:56:57.966Z,87.40
2019-03-08T18:00:01.591Z,86.90
2019-03-08T18:03:07.627Z,88.00
2019-03-08T18:05:57.574Z,87.00
2019-03-08T18:08:45.851Z,88.00
2019-03-08T18:11:34.117Z,87.40
2019-03-08T18:14:21.393Z,88.30
2019-03-08T18:17:05.713Z,87.40
2019-03-08T18:19:52.636Z,87.70
2019-03-08T18:22:34.969Z,86.60
2019-03-08T18:25:11.314Z,86.10
2019-03-08T18:28:00.202Z,85.90
2019-03-08T18:30:48.393Z,86.60
2019-03-08T18:33:35.396Z,86.80
2019-03-08T18:36:32.873Z,87.40
2019-03-08T18:39:14.002Z,88.00
2019-03-08T18:42:01.599Z,88.40
2019-03-08T18:44:49.811Z,89.60
2019-03-08T18:47:27.853Z,89.30
2019-03-08T18:50:34.350Z,88.90
2019-03-08T18:53:31.515Z,89.10
2019-03-08T18:56:25.582Z,89.90
2019-03-08T18:59:07.463Z,89.60
2019-03-08T19:02:08.093Z,88.80
2019-03-08T19:04:59.302Z,89.00
2019-03-08T19:07:53.382Z,89.40
2019-03-08T19:10:46.867Z,90.60
2019-03-08T19:13:37.216Z,90.40
2019-03-08T19:16:24.790Z,90.90
2019-03-08T19:19:11.725Z,91.20
2019-03-08T19:21:50.130Z,91.90
2019-03-08T19:24:53.474Z,92.00
2019-03-08T19:27:45.963Z,91.70
2019-03-08T19:30:37.338Z,91.70
2019-03-08T19:33:38.065Z,92.10
2019-03-08T19:36:29.099Z,91.30
2019-03-08T19:39:20.365Z,90.70
2019-03-08T19:42:03.605Z,90.30
2019-03-08T19:44:56.522Z,89.60
2019-03-08T19:48:03.076Z,89.20
2019-03-08T19:50:54.351Z,88.80
2019-03-08T19:53:41.213Z,88.00
2019-03-08T19:56:16.788Z,87.30
2019-03-08T19:58:59.230Z,86.60
2019-03-08T20:01:46.650Z,86.10
2019-03-08T20:04:29.274Z,87.00
2019-03-08T20:07:16.343Z,86.50
2019-03-08T20:09:58.482Z,85.90
2019-03-08T20:12:43.218Z,85.20
2019-03-08T20:15:42.962Z,85.80
2019-03-08T20:18:22.282Z,84.60
2019-03-08T20:20:58.984Z,85.50
2019-03-08T20:23:56.432Z,84.80
2019-03-08T20:26:44.632Z,84.50
2019-03-08T20:29:35.604Z,84.70
2019-03-08T20:32:29.876Z,83.80
2019-03-08T20:35:16.850Z,84.50
2019-03-08T20:38:15.484Z,83.40
2019-03-08T20:41:03.920Z,84.10
2019-03-08T20:43:50.546Z,84.20
2019-03-08T20:46:32.918Z,83.20
2019-03-08T20:49:02.158Z,83.80
2019-03-08T20:51:31.365Z,82.80
2019-03-08T20:54:00.523Z,82.50
2019-03-08T20:56:29.879Z,83.40
2019-03-08T20:58:59.082Z,83.20
2019-03-08T21:01:28.294Z,82.70
2019-03-08T21:03:57.526Z,83.90
2019-03-08T21:06:26.750Z,84.10
2019-03-08T21:08:55.988Z,85.60
2019-03-08T21:11:25.229Z,86.80
2019-03-08T21:13:54.943Z,88.40
2019-03-08T21:16:24.118Z,87.90
2019-03-08T21:18:53.371Z,85.10
2019-03-08T21:21:22.606Z,84.20
2019-03-08T21:23:51.811Z,83.20
2019-03-08T21:26:21.134Z,83.00
2019-03-08T21:28:50.285Z,82.00
2019-03-08T21:31:19.491Z,82.00
2019-03-08T21:33:48.755Z,82.50
2019-03-08T21:36:18.043Z,83.30
2019-03-08T21:38:50.319Z,86.20
2019-03-08T21:41:19.554Z,90.60
2019-03-08T21:43:48.753Z,91.10
2019-03-08T21:46:18.051Z,92.50
2019-03-08T21:48:47.305Z,93.30
2019-03-08T21:51:16.592Z,94.40
2019-03-08T21:53:45.740Z,94.40
2019-03-08T21:56:15.265Z,95.60
2019-03-08T21:58:44.475Z,94.80
2019-03-08T22:01:13.775Z,94.30
2019-03-08T22:03:44.660Z,95.40
2019-03-08T22:06:13.951Z,94.60
2019-03-08T22:08:54.011Z,94.10
2019-03-08T22:11:31.286Z,93.10
2019-03-08T22:14:00.949Z,93.60
2019-03-08T22:16:30.742Z,93.20
2019-03-08T22:18:59.969Z,92.60
2019-03-08T22:21:29.223Z,92.40
2019-03-08T22:23:58.426Z,91.40
2019-03-08T22:26:27.844Z,91.70
2019-03-08T22:28:57.092Z,91.30
2019-03-08T22:31:26.314Z,90.70
2019-03-08T22:33:55.528Z,90.20
2019-03-08T22:36:24.786Z,88.90
2019-03-08T22:38:54.016Z,88.90
2019-03-08T22:41:23.222Z,87.50
2019-03-08T22:43:52.379Z,87.50
2019-03-08T22:46:21.626Z,86.80
2019-03-08T22:48:50.847Z,85.80
2019-03-08T22:51:20.115Z,85.80
2019-03-08T22:53:49.263Z,85.20
2019-03-08T22:56:18.481Z,86.40
2019-03-08T22:58:47.654Z,85.10
2019-03-08T23:01:20.260Z,84.70
2019-03-08T23:03:49.574Z,85.30
2019-03-08T23:06:18.813Z,86.90
2019-03-08T23:08:48.051Z,88.30
2019-03-08T23:11:17.339Z,89.70
2019-03-08T23:13:46.637Z,91.30
2019-03-08T23:16:15.832Z,90.00
2019-03-08T23:18:45.211Z,89.10
2019-03-08T23:21:14.445Z,89.60
2019-03-08T23:23:43.750Z,88.60
2019-03-08T23:26:12.958Z,88.90
2019-03-08T23:28:46.110Z,88.30
2019-03-08T23:31:37.406Z,88.90
2019-03-08T23:34:06.654Z,88.70
2019-03-08T23:36:35.953Z,89.30
2019-03-08T23:39:08.646Z,88.60
2019-03-08T23:41:37.882Z,89.50
2019-03-08T23:44:07.147Z,91.60
2019-03-08T23:46:36.390Z,96.40
2019-03-08T23:49:05.555Z,99.20
2019-03-08T23:51:34.998Z,99.90
2019-03-08T23:54:04.226Z,99.90
2019-03-08T23:56:33.531Z,99.90
2019-03-08T23:59:02.824Z,99.90
